Terminal Aerodrome Forecast
Issued by NWS Louisville, KY

Home | Current Version | Previous Version | Text Only | Print | Product List | Glossary On
Versions: 1 2 3 4 5 6 7 8 9 10 11 12 13 14 15 16 17
206
FTUS43 KLMK 100520
TAFLEX
TAF
KLEX 100520Z 1006/1106 VRB04KT P6SM BKN026
     FM101100 22003KT P6SM SCT030
     FM102000 VRB04KT P6SM BKN150=

USA.gov is the U.S. government's official web portal to all federal, state and local government web resources and services.